createdAt,value
2022-07-27T00:00:46.401Z,22.31
2022-07-27T00:03:13.024Z,22.22
2022-07-27T00:05:39.768Z,22.18
2022-07-27T00:08:06.759Z,22.33
2022-07-27T00:10:34.273Z,22.33
2022-07-27T00:13:00.860Z,22.18
2022-07-27T00:15:27.446Z,21.92
2022-07-27T00:17:53.907Z,21.78
2022-07-27T00:20:20.377Z,21.80
2022-07-27T00:22:54.959Z,21.55
2022-07-27T00:25:22.943Z,21.30
2022-07-27T00:27:49.920Z,21.23
2022-07-27T00:30:16.761Z,21.14
2022-07-27T00:32:43.292Z,21.15
2022-07-27T00:35:10.604Z,21.29
2022-07-27T00:37:37.511Z,21.26
2022-07-27T00:40:05.475Z,21.40
2022-07-27T00:42:32.099Z,21.38
2022-07-27T00:44:58.748Z,21.22
2022-07-27T00:47:25.782Z,21.17
2022-07-27T00:49:52.740Z,21.05
2022-07-27T00:52:21.273Z,20.87
2022-07-27T00:54:48.011Z,20.81
2022-07-27T00:57:15.548Z,20.76
2022-07-27T00:59:42.926Z,20.68
2022-07-27T01:02:11.221Z,20.64
2022-07-27T01:04:38.702Z,20.70
2022-07-27T01:07:06.545Z,20.82
2022-07-27T01:09:54.415Z,20.88
2022-07-27T01:12:21.275Z,20.82
2022-07-27T01:14:49.229Z,20.81
2022-07-27T01:17:16.888Z,20.92
2022-07-27T01:19:43.723Z,20.91
2022-07-27T01:22:10.500Z,20.93
2022-07-27T01:24:37.368Z,20.82
2022-07-27T01:27:04.785Z,20.91
2022-07-27T01:29:34.317Z,21.02
2022-07-27T01:32:01.837Z,21.09
2022-07-27T01:34:28.492Z,21.26
2022-07-27T01:36:55.023Z,21.37
2022-07-27T01:39:21.613Z,21.34
2022-07-27T01:41:48.215Z,21.09
2022-07-27T01:44:14.942Z,20.99
2022-07-27T01:46:41.491Z,21.03
2022-07-27T01:49:08.470Z,21.02
2022-07-27T01:51:35.264Z,21.66
2022-07-27T01:54:01.738Z,21.94
2022-07-27T01:56:28.229Z,21.65
2022-07-27T01:58:55.312Z,21.60
2022-07-27T02:01:22.116Z,21.61
2022-07-27T02:03:48.718Z,21.61
2022-07-27T02:06:15.411Z,21.65
2022-07-27T02:08:41.894Z,21.49
2022-07-27T02:11:27.226Z,21.43
2022-07-27T02:13:53.701Z,21.45
2022-07-27T02:16:20.476Z,21.45
2022-07-27T02:18:48.688Z,21.45
2022-07-27T02:21:15.822Z,21.44
2022-07-27T02:23:44.504Z,21.49
2022-07-27T02:26:11.121Z,21.20
2022-07-27T02:28:37.676Z,20.97
2022-07-27T02:31:04.534Z,21.07
2022-07-27T02:33:31.114Z,21.21
2022-07-27T02:35:57.603Z,21.32
2022-07-27T02:38:24.188Z,21.08
2022-07-27T02:40:50.734Z,21.08
2022-07-27T02:43:17.217Z,20.99
2022-07-27T02:45:43.726Z,21.13
2022-07-27T02:48:13.022Z,21.22
2022-07-27T02:50:39.572Z,21.26
2022-07-27T02:53:06.084Z,21.28
2022-07-27T02:55:32.710Z,21.38
2022-07-27T02:57:59.263Z,21.48
2022-07-27T03:00:25.995Z,21.59
2022-07-27T03:02:52.635Z,21.44
2022-07-27T03:05:20.297Z,21.28
2022-07-27T03:07:46.900Z,21.40
2022-07-27T03:10:13.391Z,21.48
2022-07-27T03:12:40.151Z,21.55
2022-07-27T03:15:07.232Z,21.62
2022-07-27T03:17:33.716Z,21.51
2022-07-27T03:20:00.228Z,21.55
2022-07-27T03:22:30.798Z,21.57
2022-07-27T03:24:57.443Z,21.44
2022-07-27T03:27:23.906Z,21.48
2022-07-27T03:29:50.423Z,21.55
2022-07-27T03:32:17.213Z,21.55
2022-07-27T03:34:43.694Z,21.43
2022-07-27T03:37:10.190Z,21.46
2022-07-27T03:39:36.678Z,21.46
2022-07-27T03:42:03.938Z,21.41
2022-07-27T03:44:30.458Z,21.42
2022-07-27T03:46:56.941Z,21.46
2022-07-27T03:49:23.896Z,21.43
2022-07-27T03:51:50.550Z,21.47
2022-07-27T03:54:17.868Z,21.55
2022-07-27T03:56:45.346Z,21.67
2022-07-27T03:59:12.309Z,21.72
2022-07-27T04:01:39.266Z,21.71
2022-07-27T04:04:05.825Z,21.71
2022-07-27T04:06:33.036Z,21.77
2022-07-27T04:09:08.831Z,21.77
2022-07-27T04:11:37.830Z,21.74
2022-07-27T04:14:12.724Z,21.59
2022-07-27T04:16:40.142Z,21.57
2022-07-27T04:19:07.196Z,21.52
2022-07-27T04:21:35.221Z,21.57
2022-07-27T04:24:02.448Z,21.54
2022-07-27T04:26:29.366Z,21.61
2022-07-27T04:28:56.281Z,21.72
2022-07-27T04:31:23.343Z,21.77
2022-07-27T04:33:49.917Z,21.71
2022-07-27T04:36:16.473Z,21.59
2022-07-27T04:38:42.941Z,21.56
2022-07-27T04:41:09.415Z,21.69
2022-07-27T04:43:35.879Z,21.74
2022-07-27T04:46:04.637Z,21.79
2022-07-27T04:48:35.580Z,21.81
2022-07-27T04:51:02.674Z,21.84
2022-07-27T04:53:29.204Z,21.87
2022-07-27T04:55:55.754Z,21.79
2022-07-27T04:58:22.417Z,21.62
2022-07-27T05:00:49.116Z,21.55
2022-07-27T05:03:15.805Z,21.59
2022-07-27T05:05:49.796Z,21.55
2022-07-27T05:08:17.503Z,21.57
2022-07-27T05:10:44.095Z,21.40
2022-07-27T05:13:10.635Z,21.35
2022-07-27T05:15:54.490Z,21.35
2022-07-27T05:18:23.251Z,21.17
2022-07-27T05:20:50.350Z,21.15
2022-07-27T05:23:17.604Z,21.20
2022-07-27T05:25:44.096Z,21.15
2022-07-27T05:28:13.882Z,21.18
2022-07-27T05:30:40.451Z,21.36
2022-07-27T05:33:06.922Z,21.45
2022-07-27T05:35:33.566Z,21.48
2022-07-27T05:37:59.994Z,21.60
2022-07-27T05:40:26.680Z,21.70
2022-07-27T05:42:53.305Z,21.84
2022-07-27T05:45:20.395Z,21.91
2022-07-27T05:47:46.951Z,21.87
2022-07-27T05:50:14.044Z,22.01
2022-07-27T05:52:40.572Z,22.07
2022-07-27T05:55:07.781Z,22.19
2022-07-27T05:57:34.336Z,22.22
2022-07-27T06:00:01.532Z,22.16
2022-07-27T06:02:30.278Z,22.19
2022-07-27T06:04:57.350Z,22.04
2022-07-27T06:07:42.843Z,22.06
2022-07-27T06:10:09.603Z,21.98
2022-07-27T06:12:43.198Z,21.93
2022-07-27T06:15:11.201Z,21.97
2022-07-27T06:17:37.771Z,22.07
2022-07-27T06:20:06.228Z,22.10
2022-07-27T06:22:32.890Z,22.18
2022-07-27T06:24:59.712Z,22.21
2022-07-27T06:27:29.566Z,22.26
2022-07-27T06:29:56.262Z,22.36
2022-07-27T06:32:22.940Z,22.37
2022-07-27T06:34:49.549Z,22.45
2022-07-27T06:37:17.005Z,22.51
2022-07-27T06:39:46.576Z,22.89
2022-07-27T06:42:15.928Z,23.03
2022-07-27T06:44:42.359Z,23.68
2022-07-27T06:47:08.943Z,23.82
2022-07-27T06:49:35.453Z,23.72
2022-07-27T06:52:02.129Z,23.56
2022-07-27T06:54:28.728Z,23.51
2022-07-27T06:56:55.229Z,23.78
2022-07-27T06:59:21.696Z,23.90
2022-07-27T07:01:48.978Z,24.13
2022-07-27T07:04:15.666Z,24.17
2022-07-27T07:06:42.216Z,24.04
2022-07-27T07:09:09.127Z,23.93
2022-07-27T07:11:36.086Z,23.94
2022-07-27T07:14:02.803Z,23.99
2022-07-27T07:16:29.346Z,24.09
2022-07-27T07:18:55.933Z,24.01
2022-07-27T07:21:22.498Z,24.26
2022-07-27T07:23:49.003Z,23.92
2022-07-27T07:26:15.557Z,23.85
2022-07-27T07:28:42.189Z,24.11
2022-07-27T07:31:09.605Z,24.33
2022-07-27T07:33:36.148Z,24.30
2022-07-27T07:36:11.929Z,24.41
2022-07-27T07:38:40.943Z,24.51
2022-07-27T07:41:07.431Z,24.80
2022-07-27T07:43:35.574Z,24.53
2022-07-27T07:46:02.933Z,24.56
2022-07-27T07:48:29.405Z,24.54
2022-07-27T07:50:55.875Z,24.68
2022-07-27T07:53:23.223Z,24.57
2022-07-27T07:55:50.760Z,24.49
2022-07-27T07:58:18.092Z,24.46
2022-07-27T08:00:44.614Z,24.47
2022-07-27T08:03:11.161Z,24.57
2022-07-27T08:05:38.004Z,24.52
2022-07-27T08:08:04.774Z,24.66
2022-07-27T08:10:31.448Z,24.73
2022-07-27T08:12:58.220Z,24.73
2022-07-27T08:15:35.161Z,24.80
2022-07-27T08:18:04.778Z,24.89
2022-07-27T08:20:31.662Z,25.06
2022-07-27T08:22:58.116Z,25.12
2022-07-27T08:25:24.648Z,25.08
2022-07-27T08:27:51.125Z,24.94
2022-07-27T08:30:17.748Z,25.00
2022-07-27T08:32:48.162Z,24.92
2022-07-27T08:35:17.381Z,24.83
2022-07-27T08:37:44.120Z,24.97
2022-07-27T08:43:00.649Z,25.10
2022-07-27T08:45:27.554Z,25.29
2022-07-27T08:47:54.217Z,25.39
2022-07-27T08:50:25.099Z,25.50
2022-07-27T08:53:06.134Z,25.72
2022-07-27T08:55:37.960Z,25.84
2022-07-27T08:58:05.786Z,25.94
2022-07-27T09:00:34.553Z,25.85
2022-07-27T09:03:01.671Z,26.06
2022-07-27T09:05:37.527Z,26.27
2022-07-27T09:08:17.847Z,26.25
2022-07-27T09:10:44.841Z,26.25
2022-07-27T09:13:18.612Z,26.17
2022-07-27T09:16:15.755Z,26.27
2022-07-27T09:18:33.878Z,26.48
2022-07-27T09:21:17.398Z,26.55
2022-07-27T09:23:49.848Z,26.71
2022-07-27T09:26:31.799Z,26.78
2022-07-27T09:29:02.406Z,26.74
2022-07-27T09:31:29.524Z,26.52
2022-07-27T09:34:00.135Z,26.54
2022-07-27T09:36:28.297Z,26.59
2022-07-27T09:39:06.954Z,26.77
2022-07-27T09:41:45.857Z,26.97
2022-07-27T09:44:31.707Z,27.17
2022-07-27T09:46:59.594Z,27.25
2022-07-27T09:49:33.121Z,27.25
2022-07-27T09:52:03.961Z,27.47
2022-07-27T09:54:44.590Z,27.60
2022-07-27T09:57:11.280Z,27.61
2022-07-27T09:59:37.745Z,27.66
2022-07-27T10:02:05.628Z,27.79
2022-07-27T10:04:35.317Z,28.03
2022-07-27T10:07:04.455Z,27.84
2022-07-27T10:09:34.915Z,27.85
2022-07-27T10:12:04.362Z,27.57
2022-07-27T10:14:32.204Z,27.61
2022-07-27T10:16:58.878Z,27.88
2022-07-27T10:19:33.839Z,28.22
2022-07-27T10:22:00.523Z,28.30
2022-07-27T10:24:33.925Z,28.24
2022-07-27T10:27:22.208Z,28.13
2022-07-27T10:29:50.002Z,27.99
2022-07-27T10:32:31.786Z,27.98
2022-07-27T10:34:59.867Z,28.45
2022-07-27T10:37:28.291Z,28.80
2022-07-27T10:40:18.978Z,28.72
2022-07-27T10:42:51.895Z,28.67
2022-07-27T10:45:20.540Z,28.75
2022-07-27T10:47:52.692Z,28.66
2022-07-27T10:50:25.271Z,28.84
2022-07-27T10:52:57.656Z,29.05
2022-07-27T10:55:30.575Z,28.74
2022-07-27T10:57:57.804Z,28.70
2022-07-27T11:00:54.229Z,28.93
2022-07-27T11:03:23.984Z,28.60
2022-07-27T11:06:31.570Z,28.75
2022-07-27T11:09:46.489Z,29.06
2022-07-27T11:11:43.171Z,28.51
2022-07-27T11:14:11.426Z,28.54
2022-07-27T11:16:54.027Z,28.50
2022-07-27T11:19:23.860Z,28.66
2022-07-27T11:21:52.360Z,28.82
2022-07-27T11:24:19.241Z,28.94
2022-07-27T11:26:47.239Z,29.11
2022-07-27T11:29:16.506Z,29.49
2022-07-27T11:31:55.217Z,29.16
2022-07-27T11:34:33.723Z,28.69
2022-07-27T11:37:03.165Z,28.95
2022-07-27T11:39:59.101Z,28.97
2022-07-27T11:42:21.331Z,28.91
2022-07-27T11:44:51.092Z,29.10
2022-07-27T11:47:19.319Z,29.16
2022-07-27T11:49:45.860Z,29.43
2022-07-27T11:52:12.432Z,29.14
2022-07-27T11:54:41.244Z,29.12
2022-07-27T11:57:09.237Z,29.43
2022-07-27T11:59:37.774Z,29.40
2022-07-27T12:02:13.955Z,29.01
2022-07-27T12:04:42.905Z,28.86
2022-07-27T12:07:21.901Z,28.94
2022-07-27T12:09:51.333Z,28.78
2022-07-27T12:12:23.543Z,28.89
2022-07-27T12:14:54.188Z,29.24
2022-07-27T12:17:25.690Z,29.31
2022-07-27T12:20:01.242Z,29.31
2022-07-27T12:22:40.988Z,29.11
2022-07-27T12:25:10.047Z,29.02
2022-07-27T12:28:06.104Z,28.75
2022-07-27T12:30:38.030Z,29.03
2022-07-27T12:33:27.463Z,29.29
2022-07-27T12:35:54.327Z,29.32
2022-07-27T12:38:20.850Z,29.36
2022-07-27T12:41:01.166Z,29.34
2022-07-27T12:43:28.138Z,29.23
2022-07-27T12:45:55.276Z,29.25
2022-07-27T12:48:25.313Z,29.51
2022-07-27T12:51:04.067Z,29.73
2022-07-27T12:53:31.996Z,29.72
2022-07-27T12:56:02.150Z,29.74
2022-07-27T12:58:28.584Z,29.75
2022-07-27T13:00:55.543Z,29.96
2022-07-27T13:03:22.228Z,29.69
2022-07-27T13:05:48.788Z,29.57
2022-07-27T13:08:16.565Z,29.71
2022-07-27T13:10:44.475Z,29.78
2022-07-27T13:13:11.499Z,29.68
2022-07-27T13:15:38.095Z,29.62
2022-07-27T13:18:04.650Z,29.69
2022-07-27T13:20:31.572Z,29.76
2022-07-27T13:22:58.120Z,29.89
2022-07-27T13:25:24.620Z,30.10
2022-07-27T13:27:51.168Z,30.07
2022-07-27T13:30:18.772Z,30.03
2022-07-27T13:32:48.712Z,30.01
2022-07-27T13:35:16.937Z,29.96
2022-07-27T13:37:44.518Z,29.91
2022-07-27T13:40:11.554Z,29.66
2022-07-27T13:42:38.454Z,29.44
2022-07-27T13:45:10.274Z,29.56
2022-07-27T13:47:38.643Z,29.61
2022-07-27T13:50:06.302Z,29.65
2022-07-27T13:52:32.824Z,29.60
2022-07-27T13:54:59.294Z,29.52
2022-07-27T13:57:25.763Z,29.61
2022-07-27T13:59:53.181Z,29.81
2022-07-27T14:02:23.090Z,29.93
2022-07-27T14:04:50.811Z,29.94
2022-07-27T14:07:17.578Z,29.84
2022-07-27T14:12:46.869Z,29.72
2022-07-27T14:15:13.421Z,29.68
2022-07-27T14:17:39.894Z,29.81
2022-07-27T14:20:07.232Z,29.79
2022-07-27T14:22:33.706Z,29.79
2022-07-27T14:25:00.185Z,29.91
2022-07-27T14:27:26.641Z,29.83
2022-07-27T14:30:04.586Z,29.90
2022-07-27T14:32:31.087Z,29.79
2022-07-27T14:34:58.148Z,29.78
2022-07-27T14:37:24.599Z,29.76
2022-07-27T14:39:51.051Z,29.74
2022-07-27T14:42:28.352Z,29.76
2022-07-27T14:44:54.962Z,29.76
2022-07-27T14:50:06.913Z,29.95
2022-07-27T14:52:33.469Z,29.94
2022-07-27T14:55:00.453Z,29.96
2022-07-27T14:57:27.675Z,29.80
2022-07-27T14:59:54.907Z,29.83
2022-07-27T15:02:21.432Z,29.93
2022-07-27T15:04:49.014Z,30.02
2022-07-27T15:07:15.925Z,29.92
2022-07-27T15:09:42.412Z,29.81
2022-07-27T15:12:09.374Z,29.77
2022-07-27T15:14:39.048Z,29.73
2022-07-27T15:17:05.862Z,29.80
2022-07-27T15:19:32.400Z,29.84
2022-07-27T15:21:58.898Z,29.87
2022-07-27T15:24:25.461Z,29.89
2022-07-27T15:26:52.048Z,29.77
2022-07-27T15:29:18.504Z,29.75
2022-07-27T15:31:45.020Z,29.68
2022-07-27T15:34:11.665Z,29.72
2022-07-27T15:36:44.719Z,29.75
2022-07-27T15:39:13.334Z,29.71
2022-07-27T15:41:40.079Z,29.68
2022-07-27T15:44:07.229Z,29.68
2022-07-27T15:46:34.300Z,29.76
2022-07-27T15:49:01.014Z,29.77
2022-07-27T15:51:27.554Z,29.85
2022-07-27T15:53:54.128Z,29.78
2022-07-27T15:56:20.581Z,29.75
2022-07-27T15:58:47.017Z,29.72
2022-07-27T16:01:13.755Z,29.75
2022-07-27T16:03:40.699Z,29.80
2022-07-27T16:06:07.189Z,29.74
2022-07-27T16:08:33.654Z,29.74
2022-07-27T16:11:00.229Z,29.86
2022-07-27T16:13:26.751Z,29.95
2022-07-27T16:16:12.289Z,29.99
2022-07-27T16:18:39.390Z,29.70
2022-07-27T16:21:07.046Z,29.73
2022-07-27T16:23:33.691Z,29.81
2022-07-27T16:26:04.436Z,29.61
2022-07-27T16:28:33.203Z,29.53
2022-07-27T16:30:59.767Z,29.59
2022-07-27T16:33:26.640Z,29.64
2022-07-27T16:35:53.203Z,29.73
2022-07-27T16:38:19.687Z,29.81
2022-07-27T16:40:46.156Z,29.73
2022-07-27T16:43:12.625Z,29.69
2022-07-27T16:45:39.312Z,29.64
2022-07-27T16:48:06.091Z,29.60
2022-07-27T16:50:32.598Z,29.51
2022-07-27T16:52:59.097Z,29.50
2022-07-27T16:55:27.477Z,29.52
2022-07-27T16:57:54.438Z,29.56
2022-07-27T17:00:20.953Z,29.53
2022-07-27T17:02:47.855Z,29.43
2022-07-27T17:05:14.316Z,29.44
2022-07-27T17:07:42.685Z,29.44
2022-07-27T17:10:09.772Z,29.37
2022-07-27T17:12:39.070Z,29.33
2022-07-27T17:15:07.166Z,29.33
2022-07-27T17:17:34.413Z,29.31
2022-07-27T17:20:01.012Z,29.28
2022-07-27T17:22:27.566Z,29.33
2022-07-27T17:24:54.023Z,29.33
2022-07-27T17:27:20.922Z,29.32
2022-07-27T17:29:47.493Z,29.24
2022-07-27T17:32:14.013Z,29.21
2022-07-27T17:34:41.665Z,29.16
2022-07-27T17:37:08.214Z,29.15
2022-07-27T17:39:35.324Z,29.11
2022-07-27T17:42:01.861Z,29.06
2022-07-27T17:44:28.351Z,29.03
2022-07-27T17:46:54.858Z,29.01
2022-07-27T17:49:21.834Z,29.03
2022-07-27T17:51:48.366Z,29.06
2022-07-27T17:54:14.846Z,29.01
2022-07-27T17:56:41.758Z,28.95
2022-07-27T17:59:34.686Z,28.87
2022-07-27T18:01:56.458Z,28.80
2022-07-27T18:04:23.063Z,28.80
2022-07-27T18:06:49.612Z,28.80
2022-07-27T18:09:17.166Z,28.77
2022-07-27T18:11:44.242Z,28.74
2022-07-27T18:14:10.749Z,28.73
2022-07-27T18:16:40.693Z,28.71
2022-07-27T18:19:07.443Z,28.66
2022-07-27T18:21:35.525Z,28.63
2022-07-27T18:24:02.420Z,28.59
2022-07-27T18:26:28.939Z,28.51
2022-07-27T18:28:57.501Z,28.47
2022-07-27T18:31:24.558Z,28.17
2022-07-27T18:33:54.246Z,27.88
2022-07-27T18:36:21.600Z,27.64
2022-07-27T18:38:49.908Z,27.46
2022-07-27T18:41:18.919Z,27.28
2022-07-27T18:43:51.056Z,27.16
2022-07-27T18:46:22.301Z,27.20
2022-07-27T18:48:49.539Z,27.20
2022-07-27T18:51:16.310Z,27.13
2022-07-27T18:53:46.194Z,27.02
2022-07-27T18:56:12.708Z,26.87
2022-07-27T18:58:40.568Z,26.80
2022-07-27T19:01:09.284Z,26.65
2022-07-27T19:03:37.169Z,26.58
2022-07-27T19:06:06.346Z,26.54
2022-07-27T19:08:35.068Z,26.54
2022-07-27T19:11:01.574Z,26.56
2022-07-27T19:13:28.094Z,26.58
2022-07-27T19:15:54.595Z,26.53
2022-07-27T19:18:23.555Z,26.53
2022-07-27T19:20:50.501Z,26.48
2022-07-27T19:23:17.139Z,26.42
2022-07-27T19:25:45.209Z,26.42
2022-07-27T19:28:15.869Z,26.39
2022-07-27T19:30:42.465Z,26.36
2022-07-27T19:33:09.018Z,26.36
2022-07-27T19:35:35.488Z,26.33
2022-07-27T19:38:02.251Z,26.29
2022-07-27T19:40:45.649Z,26.25
2022-07-27T19:43:12.884Z,26.27
2022-07-27T19:45:39.924Z,26.30
2022-07-27T19:48:08.123Z,26.33
2022-07-27T19:50:34.853Z,26.34
2022-07-27T19:53:02.131Z,26.26
2022-07-27T19:55:28.630Z,26.19
2022-07-27T19:57:55.101Z,26.21
2022-07-27T20:00:21.961Z,26.20
2022-07-27T20:02:49.271Z,26.11
2022-07-27T20:05:15.941Z,26.04
2022-07-27T20:07:43.408Z,26.08
2022-07-27T20:10:10.674Z,26.07
2022-07-27T20:12:37.358Z,26.07
2022-07-27T20:15:04.965Z,26.10
2022-07-27T20:17:36.033Z,26.12
2022-07-27T20:20:05.014Z,26.07
2022-07-27T20:22:32.100Z,26.08
2022-07-27T20:24:58.775Z,26.11
2022-07-27T20:27:25.684Z,26.11
2022-07-27T20:29:52.179Z,26.10
2022-07-27T20:32:18.670Z,26.07
2022-07-27T20:34:45.121Z,26.16
2022-07-27T20:37:12.378Z,26.13
2022-07-27T20:39:38.852Z,26.12
2022-07-27T20:42:05.384Z,26.11
2022-07-27T20:44:31.856Z,26.11
2022-07-27T20:46:58.342Z,26.10
2022-07-27T20:49:24.907Z,26.08
2022-07-27T20:51:51.450Z,26.12
2022-07-27T20:54:18.840Z,26.08
2022-07-27T20:56:55.796Z,26.06
2022-07-27T20:59:22.745Z,25.97
2022-07-27T21:01:49.629Z,25.91
2022-07-27T21:04:18.740Z,25.90
2022-07-27T21:06:45.584Z,25.86
2022-07-27T21:09:12.416Z,25.80
2022-07-27T21:11:39.137Z,25.79
2022-07-27T21:14:07.591Z,25.83
2022-07-27T21:16:34.136Z,25.85
2022-07-27T21:19:00.608Z,25.76
2022-07-27T21:21:27.794Z,25.65
2022-07-27T21:24:13.419Z,25.55
2022-07-27T21:26:40.258Z,25.52
2022-07-27T21:29:09.282Z,25.53
2022-07-27T21:31:36.188Z,25.47
2022-07-27T21:34:02.729Z,25.48
2022-07-27T21:36:29.269Z,25.41
2022-07-27T21:38:55.830Z,25.45
2022-07-27T21:41:22.881Z,25.50
2022-07-27T21:43:49.603Z,25.53
2022-07-27T21:46:16.135Z,25.53
2022-07-27T21:48:42.902Z,25.59
2022-07-27T21:51:09.608Z,25.48
2022-07-27T21:53:36.091Z,25.48
2022-07-27T21:56:02.711Z,25.51
2022-07-27T21:58:29.176Z,25.58
2022-07-27T22:00:56.360Z,25.62
2022-07-27T22:03:22.891Z,25.60
2022-07-27T22:05:49.380Z,25.53
2022-07-27T22:08:15.826Z,25.54
2022-07-27T22:10:42.326Z,25.45
2022-07-27T22:13:08.774Z,25.41
2022-07-27T22:15:35.213Z,25.38
2022-07-27T22:18:01.665Z,25.32
2022-07-27T22:20:28.178Z,25.23
2022-07-27T22:22:54.663Z,25.19
2022-07-27T22:25:21.158Z,25.12
2022-07-27T22:27:47.650Z,25.06
2022-07-27T22:30:15.275Z,24.99
2022-07-27T22:32:41.774Z,24.94
2022-07-27T22:35:08.305Z,24.98
2022-07-27T22:37:34.773Z,24.99
2022-07-27T22:40:01.269Z,25.00
2022-07-27T22:42:28.175Z,25.01
2022-07-27T22:44:54.705Z,25.05
2022-07-27T22:47:21.348Z,25.10
2022-07-27T22:49:47.889Z,25.05
2022-07-27T22:52:14.394Z,25.02
2022-07-27T22:54:41.962Z,25.05
2022-07-27T22:57:08.730Z,25.10
2022-07-27T22:59:35.412Z,25.08
2022-07-27T23:02:02.038Z,25.09
2022-07-27T23:04:28.573Z,25.12
2022-07-27T23:06:55.167Z,25.17
2022-07-27T23:09:23.098Z,25.09
2022-07-27T23:11:50.530Z,25.11
2022-07-27T23:14:17.639Z,25.15
2022-07-27T23:16:44.554Z,25.11
2022-07-27T23:19:11.096Z,24.97
2022-07-27T23:21:39.404Z,24.91
2022-07-27T23:24:06.954Z,24.73
2022-07-27T23:26:33.601Z,24.66
2022-07-27T23:29:00.444Z,24.63
2022-07-27T23:31:27.057Z,24.73
2022-07-27T23:33:53.697Z,24.71
2022-07-27T23:36:20.208Z,24.68
2022-07-27T23:38:46.743Z,24.66
2022-07-27T23:41:13.371Z,24.62
2022-07-27T23:43:39.849Z,24.56
2022-07-27T23:46:06.876Z,24.54
2022-07-27T23:48:33.616Z,24.57
2022-07-27T23:51:00.170Z,24.61
2022-07-27T23:53:28.332Z,24.53
2022-07-27T23:55:54.968Z,24.33
2022-07-27T23:58:21.525Z,24.37
